Terminal Aerodrome Forecast
Issued by NWS

Home | Current Version | Previous Version | Graphics & Text | Print | Product List | Glossary Off
Versions: 1 2 3 4 5 6 7 8 9 10 11 12 13 14 15 16 17

000
FTUS43 KIWX 241100
TAFSBN
TAF
KSBN 241120Z 2412/2512 02006KT P6SM SCT025 BKN040
     FM241400 35008KT P6SM FEW050
     FM250100 00000KT P6SM SCT250=

USA.gov is the U.S. government's official web portal to all federal, state and local government web resources and services.